Time;durP1;ratioP1;P1;durP2;ratioP2;P2;SDS_P1;SDS_P2;PMS_P1;PMS_P2;Temp;Humidity;BMP_temperature;BMP_pressure;BME280_temperature;BME280_humidity;BME280_pressure;Samples;Min_cycle;Max_cycle;Signal;HPM_P1;HPM_P2
2022/12/20 00:02:21;;;;;;;6.13;3.17;;;10.90;99.90;;;;;;5058860;28;20403;-69
2022/12/20 00:04:47;;;;;;;7.72;3.22;;;10.90;99.90;;;;;;5068407;28;20126;-68
2022/12/20 00:07:12;;;;;;;7.88;4.70;;;10.90;99.90;;;;;;5058856;28;20033;-69
2022/12/20 00:09:38;;;;;;;5.03;2.92;;;10.90;99.90;;;;;;5069066;28;20028;-69
2022/12/20 00:12:03;;;;;;;5.50;3.17;;;10.90;99.90;;;;;;5066034;28;20489;-68
2022/12/20 00:14:29;;;;;;;5.85;2.72;;;10.90;99.90;;;;;;5061228;28;20504;-69
2022/12/20 00:16:54;;;;;;;5.03;2.95;;;10.90;99.90;;;;;;5072252;28;20037;-69
2022/12/20 00:19:20;;;;;;;9.05;3.33;;;11.00;99.90;;;;;;5060098;28;20043;-69
2022/12/20 00:21:45;;;;;;;4.38;2.35;;;11.00;99.90;;;;;;5067770;28;20411;-69
2022/12/20 00:24:11;;;;;;;9.10;3.42;;;11.00;99.90;;;;;;5067087;28;20064;-69
2022/12/20 00:26:37;;;;;;;3.97;2.47;;;11.00;99.90;;;;;;5060516;28;20108;-69
2022/12/20 00:29:03;;;;;;;5.68;2.78;;;11.00;99.90;;;;;;5070720;28;20024;-68
2022/12/20 00:31:30;;;;;;;5.97;3.17;;;10.90;99.90;;;;;;5061248;28;20023;-68
2022/12/20 00:33:56;;;;;;;6.78;2.95;;;10.90;99.90;;;;;;5066230;28;20070;-68
2022/12/20 00:36:24;;;;;;;7.47;3.22;;;10.90;99.90;;;;;;5068348;28;20078;-68
2022/12/20 00:38:51;;;;;;;8.00;3.33;;;10.90;99.90;;;;;;5058964;28;20033;-69
2022/12/20 00:41:19;;;;;;;5.90;3.28;;;10.90;99.90;;;;;;5071690;28;20024;-69
2022/12/20 00:43:46;;;;;;;5.95;3.30;;;10.90;99.90;;;;;;5063276;28;20036;-68
2022/12/20 00:46:13;;;;;;;8.02;3.20;;;10.90;99.90;;;;;;5063712;28;20040;-69
2022/12/20 00:48:38;;;;;;;7.90;3.60;;;10.90;99.90;;;;;;5070680;28;20069;-69
2022/12/20 00:51:07;;;;;;;8.02;3.05;;;10.90;99.90;;;;;;5058400;28;20141;-69
2022/12/20 00:53:33;;;;;;;5.60;2.65;;;10.80;99.90;;;;;;5069114;28;20202;-69
2022/12/20 00:55:59;;;;;;;5.07;2.75;;;10.80;99.90;;;;;;5064512;28;20170;-69
2022/12/20 00:58:25;;;;;;;7.60;3.50;;;10.80;99.90;;;;;;5061696;28;20486;-69
2022/12/20 01:00:51;;;;;;;6.40;3.05;;;10.80;99.90;;;;;;5071615;28;20024;-68
2022/12/20 01:03:17;;;;;;;7.72;3.08;;;10.80;99.90;;;;;;5058803;28;20153;-68
2022/12/20 01:06:10;;;;;;;5.53;3.10;;;10.80;99.90;;;;;;5067336;28;20108;-68
2022/12/20 01:08:35;;;;;;;4.75;2.22;;;10.70;99.90;;;;;;5068295;28;20040;-68
2022/12/20 01:11:05;;;;;;;8.68;3.38;;;10.60;99.90;;;;;;5058472;28;20028;-68
2022/12/20 01:13:33;;;;;;;9.07;3.78;;;10.60;99.90;;;;;;5068896;28;20029;-68
2022/12/20 01:16:11;;;;;;;7.28;2.80;;;10.50;99.90;;;;;;5064240;28;20024;-68
2022/12/20 01:18:37;;;;;;;5.80;2.88;;;10.50;99.90;;;;;;5058207;28;20378;-68
2022/12/20 01:21:08;;;;;;;8.10;3.05;;;10.50;99.90;;;;;;5070711;28;20071;-68
2022/12/20 01:23:35;;;;;;;9.23;3.40;;;10.50;99.90;;;;;;5061062;28;20071;-68
2022/12/20 01:26:03;;;;;;;7.63;3.42;;;10.50;99.90;;;;;;5064231;28;20297;-68
2022/12/20 01:28:29;;;;;;;7.90;3.45;;;10.40;99.90;;;;;;5068421;28;20154;-68
2022/12/20 01:30:55;;;;;;;6.68;2.85;;;10.40;99.90;;;;;;5057862;28;20028;-68
2022/12/20 01:33:21;;;;;;;7.65;3.35;;;10.40;99.90;;;;;;5069591;28;20110;-68
2022/12/20 01:36:01;;;;;;;5.65;2.85;;;10.40;99.90;;;;;;5062842;28;20480;-67
2022/12/20 01:38:27;;;;;;;5.93;2.80;;;10.30;99.90;;;;;;5060372;28;20040;-68
2022/12/20 01:40:54;;;;;;;7.28;3.53;;;10.30;99.90;;;;;;5070950;28;20032;-67
2022/12/20 01:43:21;;;;;;;6.72;3.03;;;10.30;99.90;;;;;;5058537;28;20025;-68
2022/12/20 01:45:46;;;;;;;10.48;3.65;;;10.30;99.90;;;;;;5066177;28;20028;-68
2022/12/20 01:48:17;;;;;;;9.77;3.80;;;10.20;99.90;;;;;;5065539;28;20033;-69
2022/12/20 01:50:43;;;;;;;7.72;3.33;;;10.20;99.90;;;;;;5058300;28;20203;-67
2022/12/20 01:53:10;;;;;;;7.22;3.10;;;10.20;99.90;;;;;;5070618;28;20013;-68
2022/12/20 01:55:35;;;;;;;7.18;3.17;;;10.30;99.90;;;;;;5060577;28;20040;-68
2022/12/20 01:58:06;;;;;;;8.07;3.10;;;10.30;99.90;;;;;;5063710;28;20096;-68
2022/12/20 02:00:31;;;;;;;11.15;3.83;;;10.30;99.90;;;;;;5068046;28;20024;-68
2022/12/20 02:03:02;;;;;;;5.40;2.53;;;10.30;99.90;;;;;;5057368;28;20532;-68
2022/12/20 02:05:34;;;;;;;12.45;5.20;;;10.30;99.90;;;;;;5068319;28;20036;-67
2022/12/20 02:08:00;;;;;;;18.00;8.13;;;10.30;99.90;;;;;;5063478;28;20388;-67
2022/12/20 02:10:47;;;;;;;23.73;14.05;;;10.30;99.90;;;;;;5060224;28;20036;-68
2022/12/20 02:13:24;;;;;;;31.40;20.67;;;10.40;99.90;;;;;;5070126;28;20123;-68
2022/12/20 02:15:57;;;;;;;33.70;19.20;;;10.40;99.90;;;;;;5062548;28;20041;-68
2022/12/20 02:18:29;;;;;;;18.95;7.82;;;10.40;99.90;;;;;;5060202;28;20504;-68
2022/12/20 02:21:19;;;;;;;14.60;5.03;;;10.40;99.90;;;;;;5049969;28;20034;-68
2022/12/20 02:24:07;;;;;;;9.88;4.85;;;10.30;99.90;;;;;;5036139;28;20354;-68
2022/12/20 02:27:12;;;;;;;6.97;3.22;;;10.30;99.90;;;;;;5045764;28;20028;-67
2022/12/20 02:30:06;;;;;;;10.05;3.97;;;10.30;99.90;;;;;;5041739;28;20032;-68
2022/12/20 02:32:42;;;;;;;8.27;3.42;;;10.30;99.90;;;;;;5048531;28;20029;-68
2022/12/20 02:35:09;;;;;;;10.90;3.90;;;10.30;99.90;;;;;;5044909;28;20040;-68
2022/12/20 02:37:35;;;;;;;8.30;3.75;;;10.30;99.90;;;;;;5048279;28;20030;-68
2022/12/20 02:40:03;;;;;;;10.90;4.65;;;10.30;99.90;;;;;;5040457;28;20025;-68
2022/12/20 02:42:31;;;;;;;9.15;3.60;;;10.30;99.90;;;;;;5042852;28;20081;-69
2022/12/20 02:45:15;;;;;;;10.38;4.45;;;10.30;99.90;;;;;;5042990;28;20026;-68
2022/12/20 02:47:54;;;;;;;9.13;3.83;;;10.30;99.90;;;;;;5036057;28;20029;-68
2022/12/20 02:50:44;;;;;;;10.90;3.97;;;10.40;99.90;;;;;;5039514;28;20049;-68
2022/12/20 02:53:10;;;;;;;8.45;3.65;;;10.40;99.90;;;;;;5037373;28;20029;-68
2022/12/20 02:55:51;;;;;;;8.45;4.18;;;10.30;99.90;;;;;;5040055;28;20077;-67
2022/12/20 02:58:41;;;;;;;7.50;3.83;;;10.30;99.90;;;;;;5033582;28;20026;-67
2022/12/20 03:01:16;;;;;;;12.10;4.53;;;10.30;99.90;;;;;;5043961;28;20026;-68
2022/12/20 03:03:42;;;;;;;8.93;4.22;;;10.30;99.90;;;;;;5043628;28;20067;-68
2022/12/20 03:06:08;;;;;;;9.38;4.25;;;10.40;99.90;;;;;;5042266;28;20036;-68
2022/12/20 03:08:33;;;;;;;8.32;3.80;;;10.40;99.90;;;;;;5042194;28;20033;-68
2022/12/20 03:10:59;;;;;;;9.20;4.35;;;10.40;99.90;;;;;;5043077;28;20032;-68
2022/12/20 03:13:24;;;;;;;12.32;4.20;;;10.40;99.90;;;;;;5051335;28;20039;-68
2022/12/20 03:15:50;;;;;;;9.20;4.20;;;10.40;99.90;;;;;;5052512;28;20067;-67
2022/12/20 03:18:16;;;;;;;9.13;3.78;;;10.50;99.90;;;;;;5052411;28;20049;-68
2022/12/20 03:20:42;;;;;;;11.60;4.93;;;10.50;99.90;;;;;;5052784;28;20052;-68
2022/12/20 03:23:08;;;;;;;11.63;4.20;;;10.50;99.90;;;;;;5052515;28;20124;-68
2022/12/20 03:25:33;;;;;;;11.38;5.25;;;10.50;99.90;;;;;;5052203;28;20104;-68
2022/12/20 03:27:59;;;;;;;9.32;3.97;;;10.60;99.90;;;;;;5051258;28;20029;-68
2022/12/20 03:30:24;;;;;;;8.35;3.90;;;10.60;99.90;;;;;;5051225;28;20420;-68
2022/12/20 03:32:50;;;;;;;9.95;4.95;;;10.60;99.90;;;;;;5049031;28;20433;-68
2022/12/20 03:35:16;;;;;;;9.45;3.92;;;10.70;99.90;;;;;;5049461;28;20051;-68
2022/12/20 03:37:41;;;;;;;11.05;4.63;;;10.70;99.90;;;;;;5048359;28;20476;-68
2022/12/20 03:40:08;;;;;;;6.68;3.58;;;10.70;99.90;;;;;;5051880;28;20028;-68
2022/12/20 03:42:34;;;;;;;11.00;3.65;;;10.80;99.90;;;;;;5051840;28;20021;-68
2022/12/20 03:44:59;;;;;;;9.43;3.78;;;10.80;99.90;;;;;;5052136;28;20033;-68
2022/12/20 03:47:25;;;;;;;7.82;4.22;;;10.80;99.90;;;;;;5052026;28;20037;-68
2022/12/20 03:49:51;;;;;;;9.07;3.83;;;10.80;99.90;;;;;;5052180;28;20045;-68
2022/12/20 03:52:16;;;;;;;10.07;3.47;;;10.90;99.90;;;;;;5049543;28;20013;-68
2022/12/20 03:54:42;;;;;;;6.70;3.53;;;10.80;99.90;;;;;;5051923;28;20380;-68
2022/12/20 03:57:08;;;;;;;8.80;3.65;;;10.90;99.90;;;;;;5049421;28;20421;-68
2022/12/20 03:59:34;;;;;;;10.35;4.30;;;10.90;99.90;;;;;;5047268;28;20090;-68
2022/12/20 04:02:01;;;;;;;5.03;2.80;;;10.90;99.90;;;;;;5046701;28;20029;-68
2022/12/20 04:04:27;;;;;;;16.80;3.88;;;11.00;99.90;;;;;;5049426;28;20032;-68
2022/12/20 04:06:52;;;;;;;7.70;3.88;;;11.00;99.90;;;;;;5052233;28;20029;-68
2022/12/20 04:09:18;;;;;;;5.28;2.60;;;11.00;99.90;;;;;;5052056;28;20028;-68
2022/12/20 04:11:44;;;;;;;8.05;3.50;;;11.00;99.90;;;;;;5051515;28;20021;-68
2022/12/20 04:14:09;;;;;;;6.53;3.50;;;11.00;99.90;;;;;;5050600;28;20041;-68
2022/12/20 04:16:35;;;;;;;10.52;3.30;;;11.00;99.90;;;;;;5050761;28;20108;-69
2022/12/20 04:19:01;;;;;;;8.10;3.13;;;11.00;99.90;;;;;;5051765;28;20028;-68
2022/12/20 04:21:32;;;;;;;6.38;3.65;;;11.00;99.90;;;;;;5051112;28;20483;-67
2022/12/20 04:23:59;;;;;;;4.68;3.28;;;11.00;99.90;;;;;;5048718;28;20021;-68
2022/12/20 04:26:25;;;;;;;7.32;4.20;;;11.00;99.90;;;;;;5051632;28;20090;-69
2022/12/20 04:28:51;;;;;;;7.63;2.80;;;11.00;99.90;;;;;;5051998;28;20017;-69
2022/12/20 04:31:16;;;;;;;6.72;2.97;;;11.00;99.90;;;;;;5051407;28;20025;-68
2022/12/20 04:33:42;;;;;;;6.47;3.35;;;11.10;99.90;;;;;;5048382;28;20037;-68
2022/12/20 04:36:08;;;;;;;7.53;3.00;;;11.10;99.90;;;;;;5048919;28;20018;-68
2022/12/20 04:38:34;;;;;;;5.90;3.35;;;11.10;99.90;;;;;;5048038;28;20098;-69
2022/12/20 04:40:59;;;;;;;5.93;3.22;;;11.10;99.90;;;;;;5051507;28;20028;-67
2022/12/20 04:43:25;;;;;;;8.50;3.08;;;11.10;99.90;;;;;;5051612;28;20048;-69
2022/12/20 04:45:55;;;;;;;4.88;2.78;;;11.20;99.90;;;;;;5051507;28;20039;-68
2022/12/20 04:48:28;;;;;;;6.60;3.03;;;11.20;99.90;;;;;;5047375;28;20362;-70
2022/12/20 04:50:55;;;;;;;3.92;2.50;;;11.30;99.90;;;;;;5051082;28;20060;-69
2022/12/20 04:56:07;;;;;;;11.15;3.05;;;11.30;99.90;;;;;;5053431;28;20043;-69
2022/12/20 04:58:32;;;;;;;4.82;2.78;;;11.30;99.90;;;;;;5055101;28;20488;-68
2022/12/20 05:00:58;;;;;;;7.20;3.30;;;11.30;99.90;;;;;;5054925;28;20021;-68
2022/12/20 05:03:25;;;;;;;8.85;3.97;;;11.30;99.90;;;;;;5051444;28;20477;-68
2022/12/20 05:05:51;;;;;;;6.50;3.60;;;11.20;99.90;;;;;;5051786;28;20362;-68
2022/12/20 05:08:17;;;;;;;7.32;3.22;;;11.10;99.90;;;;;;5054167;28;20032;-68
2022/12/20 05:10:42;;;;;;;6.70;3.15;;;11.10;99.90;;;;;;5054843;28;20023;-68
2022/12/20 05:13:08;;;;;;;8.52;4.03;;;11.00;99.90;;;;;;5054494;28;20095;-68
2022/12/20 05:15:34;;;;;;;11.23;4.68;;;11.00;99.90;;;;;;5054687;28;20461;-69
2022/12/20 05:17:59;;;;;;;4.85;3.00;;;10.90;99.90;;;;;;5050075;28;20382;-68
2022/12/20 05:20:26;;;;;;;9.95;5.03;;;10.90;99.90;;;;;;5047471;28;20033;-69
2022/12/20 05:28:28;;;;;;;8.68;3.90;;;10.80;99.90;;;;;;5052600;28;20036;-69
2022/12/20 05:30:54;;;;;;;9.55;4.03;;;10.80;99.90;;;;;;5051886;28;20028;-69
2022/12/20 05:33:19;;;;;;;7.22;3.28;;;10.80;99.90;;;;;;5054110;28;20025;-68
2022/12/20 05:35:45;;;;;;;13.38;4.60;;;10.70;99.90;;;;;;5051931;28;20037;-68
2022/12/20 05:38:10;;;;;;;13.15;4.72;;;10.70;99.90;;;;;;5051676;28;20033;-69
2022/12/20 05:40:36;;;;;;;9.32;4.50;;;10.60;99.90;;;;;;5053369;28;20032;-68
2022/12/20 05:43:02;;;;;;;12.43;5.10;;;10.70;99.90;;;;;;5052019;28;20025;-69
2022/12/20 05:45:27;;;;;;;10.38;3.58;;;10.60;99.90;;;;;;5051296;28;20025;-68
2022/12/20 05:47:53;;;;;;;17.75;5.30;;;10.60;99.90;;;;;;5054137;28;20032;-69
2022/12/20 05:50:18;;;;;;;11.23;4.88;;;10.60;99.90;;;;;;5052813;28;20398;-68
2022/12/20 05:52:44;;;;;;;9.18;4.10;;;10.60;99.90;;;;;;5053839;28;20074;-69
2022/12/20 05:55:10;;;;;;;13.15;4.10;;;10.70;99.90;;;;;;5051652;28;20484;-68
2022/12/20 05:57:36;;;;;;;13.23;4.55;;;10.70;99.90;;;;;;5053236;28;20032;-69
2022/12/20 06:00:03;;;;;;;7.80;2.85;;;10.70;99.90;;;;;;5052880;28;20029;-69
2022/12/20 06:02:29;;;;;;;10.05;4.03;;;10.80;99.90;;;;;;5052195;28;20036;-69
2022/12/20 06:04:55;;;;;;;7.15;3.63;;;10.80;99.90;;;;;;5048539;28;20416;-68
2022/12/20 06:07:20;;;;;;;11.65;4.18;;;10.80;99.90;;;;;;5052279;28;20453;-70
2022/12/20 06:09:46;;;;;;;7.03;3.60;;;10.90;99.90;;;;;;5052329;28;20052;-69
2022/12/20 06:12:12;;;;;;;6.38;3.55;;;10.90;99.90;;;;;;5049813;28;20034;-68
2022/12/20 06:14:38;;;;;;;7.50;3.15;;;10.90;99.90;;;;;;5049559;28;20056;-69
2022/12/20 06:17:04;;;;;;;6.13;3.38;;;10.90;99.90;;;;;;5048008;28;20458;-68
2022/12/20 06:19:29;;;;;;;6.35;3.60;;;11.00;99.90;;;;;;5039956;28;20357;-68
2022/12/20 06:21:55;;;;;;;8.77;3.35;;;11.00;99.90;;;;;;5046066;28;20044;-69
2022/12/20 06:24:24;;;;;;;7.50;3.38;;;11.00;99.90;;;;;;5062535;28;20028;-69
2022/12/20 06:26:50;;;;;;;8.82;3.35;;;11.00;99.90;;;;;;5067018;28;20036;-67
2022/12/20 06:29:16;;;;;;;5.75;2.70;;;11.00;99.90;;;;;;5055428;28;20021;-69
2022/12/20 06:31:42;;;;;;;7.22;3.08;;;11.00;99.90;;;;;;5054624;28;20526;-69
2022/12/20 06:34:08;;;;;;;6.55;2.97;;;11.10;99.90;;;;;;5073077;28;20032;-68
2022/12/20 06:36:34;;;;;;;5.03;2.75;;;11.10;99.90;;;;;;5063817;28;20449;-69
2022/12/20 06:38:59;;;;;;;6.05;3.00;;;11.10;99.90;;;;;;5053777;28;20056;-69
2022/12/20 06:41:25;;;;;;;7.70;2.80;;;11.20;99.90;;;;;;5073554;28;20103;-69
2022/12/20 06:43:50;;;;;;;6.50;3.35;;;11.20;99.90;;;;;;5073400;28;20036;-67
2022/12/20 06:46:16;;;;;;;7.00;3.30;;;11.20;99.90;;;;;;5073036;28;20029;-69
2022/12/20 06:48:41;;;;;;;6.53;2.78;;;11.20;99.90;;;;;;5061003;28;20072;-68
2022/12/20 06:51:07;;;;;;;7.50;3.13;;;11.10;99.90;;;;;;5058769;28;20045;-68
2022/12/20 06:53:33;;;;;;;7.20;3.47;;;11.10;99.90;;;;;;5063101;28;20045;-68
2022/12/20 06:55:58;;;;;;;8.02;3.25;;;11.20;99.90;;;;;;5065885;28;20171;-69
2022/12/20 06:58:24;;;;;;;7.18;3.35;;;11.20;99.90;;;;;;5056092;28;20021;-68
2022/12/20 07:00:50;;;;;;;8.70;3.65;;;11.20;99.90;;;;;;5054371;28;20033;-68
2022/12/20 07:03:15;;;;;;;27.23;4.55;;;11.10;99.90;;;;;;5065878;28;20029;-68
2022/12/20 07:05:42;;;;;;;7.82;4.00;;;11.20;99.90;;;;;;5063108;28;20035;-68
2022/12/20 07:08:08;;;;;;;7.55;3.75;;;11.10;99.90;;;;;;5058349;28;20032;-69
2022/12/20 07:10:35;;;;;;;9.27;3.90;;;11.20;99.90;;;;;;5068941;28;20028;-69
2022/12/20 07:13:01;;;;;;;9.57;3.97;;;11.20;99.90;;;;;;5056923;28;20020;-68
2022/12/20 07:15:26;;;;;;;6.28;3.20;;;11.20;99.90;;;;;;5063748;28;20043;-69
2022/12/20 07:17:52;;;;;;;7.55;3.28;;;11.20;99.90;;;;;;5064167;28;20060;-69
2022/12/20 07:20:18;;;;;;;6.50;3.28;;;11.20;99.90;;;;;;5056959;28;20037;-69
2022/12/20 07:22:46;;;;;;;9.00;3.80;;;11.20;99.90;;;;;;5069178;28;20028;-69
2022/12/20 07:25:12;;;;;;;5.20;2.75;;;11.30;99.90;;;;;;5058086;28;20029;-68
2022/12/20 07:27:38;;;;;;;4.97;3.05;;;11.30;99.90;;;;;;5062136;28;20078;-68
2022/12/20 07:30:04;;;;;;;7.82;3.15;;;11.30;99.90;;;;;;5058644;28;20129;-68
2022/12/20 07:32:29;;;;;;;4.00;2.95;;;11.30;99.90;;;;;;5052208;28;20029;-69
2022/12/20 07:34:55;;;;;;;7.13;3.22;;;11.30;99.90;;;;;;5061000;28;20051;-68
2022/12/20 07:37:20;;;;;;;6.38;3.22;;;11.40;99.90;;;;;;5059524;28;20030;-67
2022/12/20 07:39:46;;;;;;;4.75;2.63;;;11.40;99.90;;;;;;5060405;28;20033;-68
2022/12/20 07:42:11;;;;;;;8.32;3.47;;;11.40;99.90;;;;;;5066947;28;20029;-69
2022/12/20 07:44:37;;;;;;;5.55;2.78;;;11.40;99.90;;;;;;5054391;28;20072;-67
2022/12/20 07:47:03;;;;;;;5.18;3.08;;;11.40;99.90;;;;;;5066795;28;20395;-68
2022/12/20 07:49:28;;;;;;;9.18;2.83;;;11.40;99.90;;;;;;5060333;28;20052;-68
2022/12/20 07:51:57;;;;;;;6.68;3.33;;;11.40;99.90;;;;;;5059512;28;20425;-69
2022/12/20 07:54:34;;;;;;;7.72;3.05;;;11.50;99.90;;;;;;5067808;28;20097;-68
2022/12/20 07:57:05;;;;;;;5.03;2.65;;;11.50;99.90;;;;;;5041678;28;20017;-68
2022/12/20 07:59:39;;;;;;;8.60;2.95;;;11.50;99.90;;;;;;5062929;28;20052;-68
2022/12/20 08:02:10;;;;;;;8.25;2.72;;;11.50;99.90;;;;;;5065878;28;20046;-67
2022/12/20 08:04:35;;;;;;;9.88;3.22;;;11.50;99.90;;;;;;5055182;28;20120;-68
2022/12/20 08:07:01;;;;;;;8.02;3.10;;;11.50;99.90;;;;;;5067140;28;20552;-68
2022/12/20 08:09:30;;;;;;;7.43;3.10;;;11.50;99.90;;;;;;5059930;28;20044;-67
2022/12/20 08:11:57;;;;;;;8.65;2.92;;;11.50;99.90;;;;;;5057874;28;20040;-68
2022/12/20 08:14:22;;;;;;;8.10;3.03;;;11.50;99.90;;;;;;5067831;28;20040;-67
2022/12/20 08:16:48;;;;;;;6.40;2.78;;;11.50;99.90;;;;;;5054263;28;20100;-67
2022/12/20 08:19:14;;;;;;;5.75;2.50;;;11.40;99.90;;;;;;5065182;28;20025;-67
2022/12/20 08:21:39;;;;;;;5.97;2.70;;;11.40;99.90;;;;;;5062024;28;20056;-68
2022/12/20 08:24:05;;;;;;;6.25;2.92;;;11.30;99.90;;;;;;5055427;28;20029;-67
2022/12/20 08:26:30;;;;;;;6.35;3.25;;;11.30;99.90;;;;;;5068728;28;20093;-67
2022/12/20 08:28:56;;;;;;;7.68;3.28;;;11.20;99.90;;;;;;5059969;28;20082;-68
2022/12/20 08:31:21;;;;;;;9.07;3.58;;;11.20;99.90;;;;;;5059084;28;20032;-68
2022/12/20 08:33:48;;;;;;;13.85;3.60;;;11.10;99.90;;;;;;5059556;28;20025;-69
2022/12/20 08:36:13;;;;;;;7.07;2.70;;;11.10;99.90;;;;;;5059876;28;20029;-69
2022/12/20 08:38:39;;;;;;;4.55;2.60;;;11.00;99.90;;;;;;5071091;28;20024;-69
2022/12/20 08:41:09;;;;;;;7.40;3.55;;;11.00;99.90;;;;;;5060842;28;20025;-69
2022/12/20 08:43:34;;;;;;;7.45;3.17;;;10.90;99.90;;;;;;5065522;28;20024;-68
2022/12/20 08:46:00;;;;;;;6.90;3.25;;;10.90;99.90;;;;;;5068459;28;20033;-69
2022/12/20 08:48:27;;;;;;;6.97;3.17;;;10.80;99.90;;;;;;5058470;28;20397;-69
2022/12/20 08:50:57;;;;;;;7.65;3.53;;;10.80;99.90;;;;;;5071436;28;20485;-69
2022/12/20 08:53:23;;;;;;;7.78;3.35;;;10.80;99.90;;;;;;5062950;28;20044;-69
2022/12/20 08:55:49;;;;;;;11.50;3.78;;;10.80;99.90;;;;;;5063382;28;20041;-70
2022/12/20 08:58:15;;;;;;;8.60;3.80;;;10.70;99.90;;;;;;5070175;28;20052;-70
2022/12/20 09:00:40;;;;;;;10.20;3.13;;;10.70;99.90;;;;;;5058582;28;20061;-69
2022/12/20 09:03:07;;;;;;;7.18;2.95;;;10.70;99.90;;;;;;5069217;28;20098;-68
2022/12/20 09:05:32;;;;;;;7.50;3.03;;;10.70;99.90;;;;;;5063817;28;20056;-69
2022/12/20 09:07:58;;;;;;;6.03;3.58;;;10.60;99.90;;;;;;5061526;28;20052;-69
2022/12/20 09:10:24;;;;;;;7.63;3.15;;;10.60;99.90;;;;;;5071080;28;20033;-68
2022/12/20 09:12:49;;;;;;;5.10;3.22;;;10.70;99.90;;;;;;5058228;28;20028;-69
2022/12/20 09:15:15;;;;;;;9.43;3.60;;;10.60;99.90;;;;;;5067732;28;20036;-69
2022/12/20 09:17:40;;;;;;;7.72;3.03;;;10.60;99.90;;;;;;5063736;28;20048;-68
2022/12/20 09:20:06;;;;;;;9.25;3.03;;;10.70;99.90;;;;;;5059837;28;20029;-68
2022/12/20 09:22:32;;;;;;;5.60;2.95;;;10.70;99.90;;;;;;5070930;28;20040;-68
2022/12/20 09:24:57;;;;;;;4.20;2.80;;;10.70;99.90;;;;;;5059255;28;20024;-69
2022/12/20 09:27:23;;;;;;;8.68;3.30;;;10.80;99.90;;;;;;5066700;28;20025;-67
2022/12/20 09:29:48;;;;;;;8.63;3.28;;;10.80;99.90;;;;;;5066140;28;20058;-68
2022/12/20 09:32:14;;;;;;;4.53;2.80;;;10.90;99.90;;;;;;5059372;28;20040;-68
2022/12/20 09:34:39;;;;;;;7.70;2.88;;;10.90;99.90;;;;;;5070585;28;20071;-69
2022/12/20 09:37:05;;;;;;;6.38;2.92;;;11.00;99.90;;;;;;5058764;28;20028;-68
2022/12/20 09:39:31;;;;;;;6.68;2.97;;;11.00;99.90;;;;;;5065190;28;20104;-68
2022/12/20 09:41:57;;;;;;;5.90;2.20;;;11.00;99.90;;;;;;5066929;28;20052;-68
2022/12/20 09:44:30;;;;;;;7.93;3.40;;;11.00;99.90;;;;;;5057701;28;20500;-68
2022/12/20 09:47:00;;;;;;;7.40;3.10;;;11.00;99.90;;;;;;5042536;28;20052;-67
2022/12/20 09:49:30;;;;;;;10.90;3.53;;;11.00;99.90;;;;;;5065749;28;20078;-68
2022/12/20 09:52:23;;;;;;;6.25;2.63;;;11.00;99.90;;;;;;5066658;28;20097;-68
2022/12/20 09:55:16;;;;;;;6.22;2.97;;;11.10;99.90;;;;;;5057549;28;20514;-68
2022/12/20 09:57:53;;;;;;;2.55;2.17;;;11.10;99.90;;;;;;5062712;28;20052;-68
2022/12/20 10:00:19;;;;;;;13.25;3.90;;;11.10;99.90;;;;;;5069676;28;20032;-68
2022/12/20 10:02:46;;;;;;;6.13;3.20;;;11.10;99.90;;;;;;5053417;28;20029;-68
2022/12/20 10:05:16;;;;;;;6.88;3.22;;;11.10;99.90;;;;;;5067196;28;20021;-68
2022/12/20 10:07:52;;;;;;;6.65;3.03;;;11.10;99.90;;;;;;5064026;28;20025;-68
2022/12/20 10:10:51;;;;;;;8.52;3.72;;;11.10;99.90;;;;;;5057507;28;20021;-67
2022/12/20 10:13:36;;;;;;;9.40;3.20;;;11.10;99.90;;;;;;5047931;28;20020;-66
2022/12/20 10:16:18;;;;;;;7.68;3.55;;;11.10;99.90;;;;;;5059613;28;20037;-67
2022/12/20 10:19:16;;;;;;;5.07;3.58;;;11.10;99.90;;;;;;5068752;28;20032;-68
2022/12/20 10:22:00;;;;;;;10.70;4.75;;;11.10;99.90;;;;;;5064097;28;20044;-67
2022/12/20 10:24:35;;;;;;;9.63;3.22;;;11.10;99.90;;;;;;5056721;28;20037;-67
2022/12/20 10:27:13;;;;;;;10.05;4.40;;;11.10;99.90;;;;;;5068104;28;20490;-68
2022/12/20 10:29:38;;;;;;;10.75;4.15;;;11.10;99.90;;;;;;5063368;28;20025;-67
2022/12/20 10:32:12;;;;;;;9.30;4.50;;;11.10;99.90;;;;;;5059649;28;20094;-68
2022/12/20 10:34:38;;;;;;;8.23;3.42;;;11.10;99.90;;;;;;5069514;28;20123;-67
2022/12/20 10:37:17;;;;;;;10.55;3.45;;;11.10;99.90;;;;;;5058662;28;20027;-67
2022/12/20 10:39:47;;;;;;;7.57;3.78;;;11.20;99.90;;;;;;5062254;28;20033;-68
2022/12/20 10:42:39;;;;;;;6.85;3.40;;;11.20;99.90;;;;;;5068311;28;20032;-67
2022/12/20 10:45:14;;;;;;;10.77;5.32;;;11.20;99.90;;;;;;5044525;28;20032;-67
2022/12/20 10:47:43;;;;;;;7.28;3.33;;;11.20;99.90;;;;;;5062342;28;20074;-68
2022/12/20 10:50:17;;;;;;;11.45;4.10;;;11.20;99.90;;;;;;5066552;28;20049;-68
2022/12/20 10:52:43;;;;;;;10.65;4.40;;;11.20;99.90;;;;;;5056360;28;20069;-67
2022/12/20 10:55:34;;;;;;;8.95;4.05;;;11.20;99.90;;;;;;5066512;28;20032;-67
2022/12/20 10:58:15;;;;;;;8.73;4.20;;;11.30;99.90;;;;;;5065533;28;20070;-68
2022/12/20 11:00:40;;;;;;;10.77;4.10;;;11.30;99.90;;;;;;5053348;28;20358;-68
2022/12/20 11:03:23;;;;;;;10.50;4.18;;;11.30;99.90;;;;;;5058130;28;20043;-68
2022/12/20 11:05:54;;;;;;;10.05;4.60;;;11.40;99.90;;;;;;5061159;28;20029;-67
2022/12/20 11:08:23;;;;;;;10.98;4.40;;;11.40;99.90;;;;;;5068586;28;20032;-67
2022/12/20 11:10:49;;;;;;;5.40;3.47;;;11.50;99.90;;;;;;5055901;28;20107;-67
2022/12/20 11:13:24;;;;;;;7.93;3.83;;;11.50;99.90;;;;;;5065568;28;20231;-67
2022/12/20 11:15:55;;;;;;;9.20;3.83;;;11.50;99.90;;;;;;5064132;28;20109;-67
2022/12/20 11:18:52;;;;;;;10.77;3.55;;;11.60;99.90;;;;;;5056707;28;20017;-68
2022/12/20 11:21:58;;;;;;;10.20;4.47;;;11.60;99.90;;;;;;5047421;28;20036;-67
2022/12/20 11:24:47;;;;;;;10.70;3.97;;;11.70;99.90;;;;;;5042996;28;20049;-68
2022/12/20 11:27:43;;;;;;;11.13;4.45;;;11.70;99.90;;;;;;5048573;28;20032;-67
2022/12/20 11:30:18;;;;;;;11.02;4.55;;;11.70;99.90;;;;;;5043895;28;20110;-68
2022/12/20 11:33:09;;;;;;;14.02;4.40;;;11.80;99.90;;;;;;5047098;28;20028;-67
2022/12/20 11:35:56;;;;;;;7.25;3.95;;;11.80;99.90;;;;;;5054649;28;20044;-67
2022/12/20 11:38:25;;;;;;;10.45;3.80;;;11.80;99.90;;;;;;5062909;28;20029;-67
2022/12/20 11:41:10;;;;;;;11.23;4.82;;;11.80;99.90;;;;;;5064274;28;20396;-67
2022/12/20 11:44:07;;;;;;;10.10;4.50;;;11.90;99.90;;;;;;5055624;28;20029;-68
2022/12/20 11:46:44;;;;;;;10.15;4.97;;;11.90;99.90;;;;;;5060571;28;20033;-68
2022/12/20 11:49:28;;;;;;;11.90;4.07;;;11.90;99.90;;;;;;5068326;28;20028;-68
2022/12/20 11:52:17;;;;;;;9.27;5.03;;;11.90;99.90;;;;;;5057682;28;20044;-68
2022/12/20 11:54:47;;;;;;;13.55;4.53;;;12.00;99.90;;;;;;5056488;28;20057;-68
2022/12/20 11:57:19;;;;;;;8.88;4.78;;;12.00;99.90;;;;;;5068673;28;20043;-68
2022/12/20 11:59:51;;;;;;;;;;;12.10;99.90;;;;;;5049888;28;20021;-68
2022/12/20 12:02:37;;;;;;;13.20;5.20;;;12.10;99.90;;;;;;5062592;28;19912;-68
2022/12/20 12:05:06;;;;;;;10.30;5.28;;;12.20;99.90;;;;;;5061087;28;20472;-68
2022/12/20 12:07:34;;;;;;;12.32;5.03;;;12.20;99.90;;;;;;5072643;28;20039;-68
2022/12/20 12:10:34;;;;;;;11.82;5.22;;;12.30;99.90;;;;;;5062687;28;20029;-68
2022/12/20 12:13:26;;;;;;;9.80;4.60;;;12.40;99.90;;;;;;5060299;28;20131;-67
2022/12/20 12:15:58;;;;;;;8.90;4.85;;;12.40;99.90;;;;;;5046563;28;20033;-67
2022/12/20 12:18:28;;;;;;;10.82;4.90;;;12.40;99.90;;;;;;5066405;28;20032;-66
2022/12/20 12:21:18;;;;;;;10.38;4.10;;;12.40;99.90;;;;;;5069702;28;20123;-67
2022/12/20 12:23:43;;;;;;;9.27;3.97;;;12.40;99.90;;;;;;5048458;28;20017;-67
2022/12/20 12:26:24;;;;;;;10.93;5.60;;;12.30;99.90;;;;;;5068206;28;20021;-68
2022/12/20 12:28:54;;;;;;;11.35;5.43;;;12.30;99.90;;;;;;5069107;28;20099;-67
2022/12/20 12:31:27;;;;;;;11.50;5.25;;;12.30;99.90;;;;;;5058329;28;20025;-67
2022/12/20 12:34:09;;;;;;;10.95;5.32;;;12.30;99.90;;;;;;5069817;28;20052;-66
2022/12/20 12:36:53;;;;;;;12.43;4.63;;;12.30;99.90;;;;;;5065816;28;20063;-67
2022/12/20 12:39:25;;;;;;;7.90;4.22;;;12.30;99.90;;;;;;5055962;28;20737;-69
2022/12/20 12:42:08;;;;;;;11.27;5.47;;;12.30;99.90;;;;;;5055242;28;20063;-69
2022/12/20 12:44:57;;;;;;;11.18;6.03;;;12.30;99.90;;;;;;5066127;28;20028;-69
2022/12/20 12:47:33;;;;;;;12.23;6.18;;;12.40;99.90;;;;;;5059038;28;20143;-68
2022/12/20 12:50:01;;;;;;;11.80;6.05;;;12.40;99.90;;;;;;5068861;28;20115;-69
2022/12/20 12:52:42;;;;;;;8.35;5.07;;;12.40;99.90;;;;;;5065005;28;20036;-69
2022/12/20 12:55:44;;;;;;;13.43;7.07;;;12.30;99.90;;;;;;5058060;28;20072;-68
2022/12/20 12:58:21;;;;;;;12.65;6.25;;;12.30;99.90;;;;;;5050767;28;20336;-67
2022/12/20 13:00:52;;;;;;;15.02;6.25;;;12.40;99.90;;;;;;5062147;28;20024;-67
2022/12/20 13:03:50;;;;;;;8.87;5.33;;;12.40;99.90;;;;;;5071414;28;20760;-67
2022/12/20 13:06:25;;;;;;;12.32;5.45;;;12.30;99.90;;;;;;5063677;28;20048;-68
2022/12/20 13:08:57;;;;;;;13.55;6.28;;;12.30;99.90;;;;;;5060363;28;20481;-68